Time;durP1;ratioP1;P1;durP2;ratioP2;P2;SDS_P1;SDS_P2;PMS_P1;PMS_P2;Temp;Humidity;BMP_temperature;BMP_pressure;BME280_temperature;BME280_humidity;BME280_pressure;Samples;Min_cycle;Max_cycle;Signal;HPM_P1;HPM_P2
2024/02/02 00:00:34;;;;;;;8.32;4.20;;;1.90;99.90;;;;;;5008014;28;20254;-59
2024/02/02 00:03:03;;;;;;;6.03;4.32;;;1.80;99.90;;;;;;5004264;28;20207;-58
2024/02/02 00:05:30;;;;;;;4.63;4.30;;;1.80;99.90;;;;;;5007457;28;20298;-59
2024/02/02 00:07:56;;;;;;;7.75;4.93;;;1.70;99.90;;;;;;5008463;28;20278;-60
2024/02/02 00:10:23;;;;;;;5.38;3.40;;;1.70;99.90;;;;;;5008491;28;20215;-58
2024/02/02 00:12:52;;;;;;;7.60;4.18;;;1.70;99.90;;;;;;5008263;28;20215;-57
2024/02/02 00:15:19;;;;;;;7.88;4.78;;;1.60;99.90;;;;;;5007974;28;20238;-57
2024/02/02 00:17:47;;;;;;;7.75;4.25;;;1.50;99.90;;;;;;5008733;28;20265;-55
2024/02/02 00:20:15;;;;;;;9.75;6.88;;;1.50;99.90;;;;;;5008044;28;20215;-59
2024/02/02 00:22:42;;;;;;;5.70;3.45;;;1.40;99.90;;;;;;5007972;28;20211;-56
2024/02/02 00:25:09;;;;;;;4.50;4.18;;;1.40;99.90;;;;;;5007973;28;20262;-61
2024/02/02 00:27:36;;;;;;;8.60;4.32;;;1.30;99.90;;;;;;5008330;28;20714;-58
2024/02/02 00:30:03;;;;;;;7.65;5.47;;;1.30;99.90;;;;;;5008223;28;20273;-59
2024/02/02 00:32:30;;;;;;;7.10;5.65;;;1.30;99.90;;;;;;5007810;28;20269;-57
2024/02/02 00:34:57;;;;;;;6.53;4.53;;;1.20;99.90;;;;;;5007758;28;20263;-57
2024/02/02 00:37:25;;;;;;;6.03;5.22;;;1.20;99.90;;;;;;5007531;28;20208;-58
2024/02/02 00:39:52;;;;;;;5.88;4.00;;;1.20;99.90;;;;;;5007438;28;20243;-56
2024/02/02 00:42:19;;;;;;;10.80;4.95;;;1.20;99.90;;;;;;5007234;28;20446;-60
2024/02/02 00:44:46;;;;;;;7.43;5.57;;;1.20;99.90;;;;;;5007997;28;20266;-57
2024/02/02 00:47:13;;;;;;;13.30;5.57;;;1.20;99.90;;;;;;5008362;28;20597;-60
2024/02/02 00:49:40;;;;;;;8.50;5.25;;;1.20;99.90;;;;;;5008565;28;20211;-59
2024/02/02 00:52:07;;;;;;;6.25;4.40;;;1.20;99.90;;;;;;5008489;28;20299;-58
2024/02/02 00:54:35;;;;;;;10.20;6.10;;;1.30;99.90;;;;;;5008471;28;20278;-57
2024/02/02 00:57:02;;;;;;;6.45;5.30;;;1.30;99.90;;;;;;5008374;28;20257;-58
2024/02/02 00:59:29;;;;;;;7.05;4.57;;;1.30;99.90;;;;;;5010242;28;20215;-58
2024/02/02 01:01:56;;;;;;;15.32;4.72;;;1.30;99.90;;;;;;5011614;28;20212;-59
2024/02/02 01:04:23;;;;;;;9.70;5.80;;;1.40;99.90;;;;;;5012009;28;20286;-55
2024/02/02 01:06:50;;;;;;;7.65;5.30;;;1.40;99.90;;;;;;5012085;28;20718;-58
2024/02/02 01:09:16;;;;;;;6.75;5.68;;;1.40;99.90;;;;;;5011903;28;20211;-60
2024/02/02 01:11:45;;;;;;;6.00;4.90;;;1.40;99.90;;;;;;5011533;28;20247;-59
2024/02/02 01:14:12;;;;;;;9.60;5.43;;;1.40;99.90;;;;;;5011784;28;20215;-58
2024/02/02 01:16:39;;;;;;;6.35;5.10;;;1.50;99.90;;;;;;5012100;28;20574;-57
2024/02/02 01:19:06;;;;;;;5.60;4.70;;;1.50;99.90;;;;;;5011995;28;20212;-57
2024/02/02 01:21:33;;;;;;;7.13;6.05;;;1.50;99.90;;;;;;5011703;28;20211;-58
2024/02/02 01:24:00;;;;;;;4.40;3.53;;;1.50;99.90;;;;;;5012273;28;20588;-59
2024/02/02 01:26:27;;;;;;;6.07;4.70;;;1.50;99.90;;;;;;5011926;28;20714;-58
2024/02/02 01:28:55;;;;;;;5.25;4.78;;;1.50;99.90;;;;;;5011840;28;20231;-56
2024/02/02 01:31:22;;;;;;;11.85;5.10;;;1.50;99.90;;;;;;5011567;28;20273;-58
2024/02/02 01:33:49;;;;;;;13.70;5.53;;;1.50;99.90;;;;;;5011883;28;20222;-59
2024/02/02 01:36:16;;;;;;;8.45;4.63;;;1.50;99.90;;;;;;5011405;28;20643;-57
2024/02/02 01:38:43;;;;;;;10.63;4.80;;;1.50;99.90;;;;;;5011083;28;20270;-58
2024/02/02 01:41:10;;;;;;;7.00;5.43;;;1.50;99.90;;;;;;5010993;28;20302;-59
2024/02/02 01:43:37;;;;;;;6.97;5.05;;;1.40;99.90;;;;;;5011448;28;20266;-59
2024/02/02 01:46:06;;;;;;;12.05;6.18;;;1.40;99.90;;;;;;5010591;28;20231;-57
2024/02/02 01:48:33;;;;;;;5.53;5.00;;;1.40;99.90;;;;;;5010155;28;20220;-59
2024/02/02 01:50:59;;;;;;;9.73;5.82;;;1.40;99.90;;;;;;5010614;28;20251;-56
2024/02/02 01:53:26;;;;;;;5.78;5.28;;;1.40;99.90;;;;;;5011558;28;20212;-59
2024/02/02 01:55:54;;;;;;;5.55;5.00;;;1.30;99.90;;;;;;5011126;28;20232;-59
2024/02/02 01:58:21;;;;;;;5.38;4.88;;;1.30;99.90;;;;;;5011513;28;20297;-60
2024/02/02 02:00:48;;;;;;;5.97;5.40;;;1.30;99.90;;;;;;5010612;28;20247;-60
2024/02/02 02:03:17;;;;;;;12.18;5.47;;;1.30;99.90;;;;;;5010965;28;20247;-59
2024/02/02 02:05:44;;;;;;;9.27;5.18;;;1.30;99.90;;;;;;5010673;28;20317;-54
2024/02/02 02:08:11;;;;;;;11.23;6.07;;;1.30;99.90;;;;;;5010944;28;20215;-60
2024/02/02 02:10:38;;;;;;;11.05;5.35;;;1.20;99.90;;;;;;5010296;28;20289;-59
2024/02/02 02:13:05;;;;;;;7.60;5.40;;;1.20;99.90;;;;;;5010899;28;20675;-58
2024/02/02 02:15:33;;;;;;;8.13;5.13;;;1.20;99.90;;;;;;5011113;28;20274;-58
2024/02/02 02:18:00;;;;;;;12.52;6.20;;;1.30;99.90;;;;;;5010629;28;20291;-57
2024/02/02 02:20:30;;;;;;;5.88;5.30;;;1.20;99.90;;;;;;5010708;28;20322;-59
2024/02/02 02:22:58;;;;;;;5.90;4.68;;;1.20;99.90;;;;;;5010652;28;20212;-61
2024/02/02 02:25:25;;;;;;;14.52;6.32;;;1.20;99.90;;;;;;5010475;28;20339;-60
2024/02/02 02:27:52;;;;;;;7.10;5.32;;;1.30;99.90;;;;;;5010614;28;20661;-57
2024/02/02 02:30:19;;;;;;;7.93;5.45;;;1.30;99.90;;;;;;5010665;28;20216;-59
2024/02/02 02:32:46;;;;;;;7.65;5.43;;;1.30;99.90;;;;;;5009839;28;20216;-58
2024/02/02 02:35:13;;;;;;;11.05;5.25;;;1.30;99.90;;;;;;5009578;28;20305;-57
2024/02/02 02:37:40;;;;;;;10.05;6.03;;;1.30;99.90;;;;;;5009873;28;20247;-56
2024/02/02 02:40:09;;;;;;;7.55;5.18;;;1.30;99.90;;;;;;5009961;28;20212;-60
2024/02/02 02:42:36;;;;;;;7.15;5.78;;;1.30;99.90;;;;;;5009348;28;20216;-60
2024/02/02 02:45:03;;;;;;;9.75;5.60;;;1.30;99.90;;;;;;5009760;28;20309;-57
2024/02/02 02:47:30;;;;;;;10.18;5.28;;;1.30;99.90;;;;;;5010281;28;20318;-54
2024/02/02 02:49:57;;;;;;;12.32;6.60;;;1.20;99.90;;;;;;5010026;28;20212;-57
2024/02/02 02:52:24;;;;;;;6.65;4.65;;;1.20;99.90;;;;;;5009576;28;20215;-60
2024/02/02 02:54:51;;;;;;;6.07;4.85;;;1.20;99.90;;;;;;5009962;28;20227;-56
2024/02/02 02:57:19;;;;;;;14.82;6.07;;;1.20;99.90;;;;;;5010374;28;20207;-60
2024/02/02 02:59:46;;;;;;;5.25;4.68;;;1.20;99.90;;;;;;5010458;28;20212;-59
2024/02/02 03:02:13;;;;;;;11.90;5.70;;;1.20;99.90;;;;;;5009671;28;20219;-56
2024/02/02 03:04:40;;;;;;;7.88;5.90;;;1.20;99.90;;;;;;5009749;28;20682;-58
2024/02/02 03:07:07;;;;;;;11.05;6.68;;;1.20;99.90;;;;;;5009857;28;20231;-58
2024/02/02 03:09:35;;;;;;;8.73;5.50;;;1.30;99.90;;;;;;5009847;28;20239;-58
2024/02/02 03:12:02;;;;;;;7.88;6.95;;;1.30;99.90;;;;;;5009455;28;20220;-58
2024/02/02 03:14:30;;;;;;;10.50;5.65;;;1.30;99.90;;;;;;5009657;28;20235;-59
2024/02/02 03:16:57;;;;;;;9.88;6.32;;;1.30;99.90;;;;;;5009891;28;20265;-58
2024/02/02 03:19:24;;;;;;;6.88;5.30;;;1.40;99.90;;;;;;5009476;28;20208;-58
2024/02/02 03:21:51;;;;;;;6.35;5.03;;;1.40;99.90;;;;;;5008780;28;20243;-58
2024/02/02 03:24:18;;;;;;;13.75;5.97;;;1.40;99.90;;;;;;5009434;28;20232;-60
2024/02/02 03:26:45;;;;;;;6.43;5.78;;;1.40;99.90;;;;;;5009517;28;20720;-55
2024/02/02 03:29:12;;;;;;;6.53;5.93;;;1.50;99.90;;;;;;5009239;28;20212;-59
2024/02/02 03:31:40;;;;;;;5.20;4.57;;;1.50;99.90;;;;;;5008750;28;20289;-61
2024/02/02 03:34:07;;;;;;;10.50;5.72;;;1.50;99.90;;;;;;5009471;28;20216;-60
2024/02/02 03:36:34;;;;;;;8.23;6.20;;;1.60;99.90;;;;;;5009562;28;20257;-58
2024/02/02 03:39:02;;;;;;;8.77;5.55;;;1.60;99.90;;;;;;5008930;28;20714;-59
2024/02/02 03:41:29;;;;;;;8.82;5.38;;;1.60;99.90;;;;;;5007964;28;20242;-59
2024/02/02 03:43:56;;;;;;;5.60;4.90;;;1.70;99.90;;;;;;5008392;28;20300;-55
2024/02/02 03:46:23;;;;;;;8.45;5.10;;;1.70;99.90;;;;;;5008094;28;20217;-57
2024/02/02 03:48:52;;;;;;;11.82;6.55;;;1.70;99.90;;;;;;5008417;28;20215;-56
2024/02/02 03:51:19;;;;;;;14.32;6.47;;;1.70;99.90;;;;;;5008789;28;20298;-58
2024/02/02 03:53:45;;;;;;;7.32;6.20;;;1.70;99.90;;;;;;5008996;28;20211;-54
2024/02/02 03:56:12;;;;;;;11.32;5.47;;;1.70;99.90;;;;;;5009047;28;20263;-57
2024/02/02 03:58:39;;;;;;;9.38;6.63;;;1.70;99.90;;;;;;5008933;28;20208;-59
2024/02/02 04:01:06;;;;;;;7.85;6.43;;;1.70;99.90;;;;;;5008419;28;20702;-58
2024/02/02 04:03:33;;;;;;;10.38;6.20;;;1.70;99.90;;;;;;5009165;28;20214;-57
2024/02/02 04:06:02;;;;;;;7.35;5.03;;;1.70;99.90;;;;;;5009340;28;20263;-59
2024/02/02 04:08:29;;;;;;;13.70;5.65;;;1.70;99.90;;;;;;5009004;28;20228;-57
2024/02/02 04:10:56;;;;;;;10.60;5.30;;;1.70;99.90;;;;;;5008536;28;20758;-59
2024/02/02 04:13:23;;;;;;;8.00;5.28;;;1.70;99.90;;;;;;5008830;28;20211;-59
2024/02/02 04:15:50;;;;;;;9.40;4.85;;;1.70;99.90;;;;;;5008709;28;20742;-57
2024/02/02 04:18:17;;;;;;;10.82;6.93;;;1.80;99.90;;;;;;5008833;28;20278;-58
2024/02/02 04:20:44;;;;;;;10.35;7.90;;;1.80;99.90;;;;;;5008206;28;20243;-55
2024/02/02 04:23:13;;;;;;;6.95;6.25;;;1.80;99.90;;;;;;5008575;28;20294;-59
2024/02/02 04:25:39;;;;;;;12.07;6.35;;;1.80;99.90;;;;;;5008462;28;20664;-58
2024/02/02 04:28:08;;;;;;;16.02;6.20;;;1.80;99.90;;;;;;5008501;28;20223;-57
2024/02/02 04:30:35;;;;;;;8.80;6.60;;;1.80;99.90;;;;;;5008528;28;20219;-55
2024/02/02 04:33:02;;;;;;;14.60;6.30;;;1.80;99.90;;;;;;5008967;28;20215;-58
2024/02/02 04:35:32;;;;;;;8.65;6.22;;;1.80;99.90;;;;;;5012474;28;20251;-57
2024/02/02 04:38:00;;;;;;;13.35;6.15;;;1.80;99.90;;;;;;5012815;28;20309;-54
2024/02/02 04:40:28;;;;;;;8.88;6.32;;;1.80;99.90;;;;;;5012719;28;20215;-58
2024/02/02 04:42:55;;;;;;;7.80;5.47;;;1.80;99.90;;;;;;5012577;28;20289;-53
2024/02/02 04:45:22;;;;;;;5.70;5.15;;;1.80;99.90;;;;;;5012263;28;20714;-58
2024/02/02 04:47:48;;;;;;;14.38;6.53;;;1.80;99.90;;;;;;5012537;28;20277;-58
2024/02/02 04:50:16;;;;;;;6.40;5.80;;;1.80;99.90;;;;;;5009578;28;20277;-58
2024/02/02 04:52:43;;;;;;;10.45;5.55;;;1.80;99.90;;;;;;5011635;28;20251;-53
2024/02/02 04:55:10;;;;;;;8.40;5.80;;;1.80;99.90;;;;;;5012127;28;20243;-54
2024/02/02 04:57:38;;;;;;;11.55;6.57;;;1.80;99.90;;;;;;5012426;28;20203;-59
2024/02/02 05:00:06;;;;;;;8.50;6.70;;;1.90;99.90;;;;;;5012148;28;20220;-59
2024/02/02 05:02:33;;;;;;;9.55;7.05;;;1.90;99.90;;;;;;5011717;28;20216;-59
2024/02/02 05:05:00;;;;;;;8.20;6.00;;;1.90;99.90;;;;;;5012144;28;20227;-57
2024/02/02 05:07:27;;;;;;;7.75;5.20;;;1.90;99.90;;;;;;5012361;28;20750;-58
2024/02/02 05:09:54;;;;;;;11.85;5.82;;;1.90;99.90;;;;;;5012179;28;20208;-56
2024/02/02 05:12:21;;;;;;;9.52;6.60;;;2.00;99.90;;;;;;5011649;28;20216;-58
2024/02/02 05:14:50;;;;;;;7.85;6.32;;;2.00;99.90;;;;;;5011873;28;20232;-59
2024/02/02 05:17:17;;;;;;;8.30;6.80;;;2.00;99.90;;;;;;5011881;28;20218;-59
2024/02/02 05:19:44;;;;;;;6.20;5.45;;;2.00;99.90;;;;;;5011840;28;20212;-56
2024/02/02 05:22:11;;;;;;;8.35;5.47;;;2.10;99.90;;;;;;5011200;28;20251;-57
2024/02/02 05:24:38;;;;;;;14.27;6.22;;;2.10;99.90;;;;;;5011761;28;20263;-58
2024/02/02 05:27:05;;;;;;;8.25;6.07;;;2.10;99.90;;;;;;5011326;28;20318;-59
2024/02/02 05:29:32;;;;;;;11.82;5.85;;;2.10;99.90;;;;;;5011406;28;20208;-58
2024/02/02 05:32:00;;;;;;;6.13;4.70;;;2.10;99.90;;;;;;5011359;28;20220;-56
2024/02/02 05:34:27;;;;;;;8.40;5.43;;;2.10;99.90;;;;;;5011664;28;20759;-60
2024/02/02 05:36:54;;;;;;;8.00;5.70;;;2.20;99.90;;;;;;5012005;28;20305;-57
2024/02/02 05:39:21;;;;;;;6.50;5.53;;;2.20;99.90;;;;;;5011686;28;20578;-56
2024/02/02 05:41:50;;;;;;;8.60;6.07;;;2.20;99.90;;;;;;5011150;28;20216;-60
2024/02/02 05:44:17;;;;;;;7.65;5.45;;;2.20;99.90;;;;;;5011359;28;20627;-60
2024/02/02 05:46:44;;;;;;;11.02;5.25;;;2.30;99.90;;;;;;5011493;28;20941;-59
2024/02/02 05:49:13;;;;;;;6.57;4.63;;;2.30;99.90;;;;;;5011249;28;20231;-54
2024/02/02 05:51:40;;;;;;;7.78;5.40;;;2.30;99.90;;;;;;5010721;28;20218;-59
2024/02/02 05:54:06;;;;;;;10.43;5.40;;;2.30;99.90;;;;;;5011104;28;20216;-59
2024/02/02 05:56:34;;;;;;;5.70;5.15;;;2.30;99.90;;;;;;5011064;28;20239;-59
2024/02/02 05:59:00;;;;;;;8.98;5.90;;;2.30;99.90;;;;;;5011203;28;20266;-57
2024/02/02 06:01:27;;;;;;;6.03;5.32;;;2.40;99.90;;;;;;5010601;28;20749;-58
2024/02/02 06:03:54;;;;;;;5.80;5.30;;;2.40;99.90;;;;;;5011002;28;20215;-59
2024/02/02 06:06:23;;;;;;;8.95;4.65;;;2.40;99.90;;;;;;5010986;28;20227;-56
2024/02/02 06:08:49;;;;;;;9.50;5.40;;;2.40;99.90;;;;;;5010792;28;20268;-60
2024/02/02 06:11:16;;;;;;;10.55;5.88;;;2.40;99.90;;;;;;5010508;28;20215;-60
2024/02/02 06:13:43;;;;;;;10.15;5.80;;;2.40;99.90;;;;;;5011006;28;20305;-57
2024/02/02 06:16:10;;;;;;;11.48;6.25;;;2.40;99.90;;;;;;5010991;28;20668;-58
2024/02/02 06:18:37;;;;;;;5.82;4.85;;;2.40;99.90;;;;;;5010589;28;20717;-59
2024/02/02 06:21:04;;;;;;;7.35;5.25;;;2.40;99.90;;;;;;5010199;28;20239;-59
2024/02/02 06:23:32;;;;;;;6.75;4.80;;;2.50;99.90;;;;;;5010619;28;20257;-58
2024/02/02 06:25:59;;;;;;;11.77;5.75;;;2.50;99.90;;;;;;5010441;28;20227;-60
2024/02/02 06:28:26;;;;;;;9.40;5.63;;;2.40;99.90;;;;;;5010512;28;20278;-59
2024/02/02 06:30:53;;;;;;;6.78;4.47;;;2.50;99.90;;;;;;5010004;28;20266;-56
2024/02/02 06:33:20;;;;;;;6.15;5.00;;;2.50;99.90;;;;;;5010611;28;20273;-59
2024/02/02 06:35:48;;;;;;;6.00;4.75;;;2.50;99.90;;;;;;5010310;28;20301;-59
2024/02/02 06:38:15;;;;;;;9.80;6.03;;;2.50;99.90;;;;;;5010281;28;20212;-58
2024/02/02 06:40:43;;;;;;;16.23;6.43;;;2.50;99.90;;;;;;5010377;28;20707;-59
2024/02/02 06:43:11;;;;;;;5.53;5.03;;;2.60;99.90;;;;;;5010668;28;20663;-59
2024/02/02 06:45:38;;;;;;;6.40;5.82;;;2.60;99.90;;;;;;5010227;28;20236;-59
2024/02/02 06:48:09;;;;;;;6.40;4.57;;;2.60;99.90;;;;;;5009806;28;20792;-59
2024/02/02 06:50:36;;;;;;;7.85;5.53;;;2.60;99.90;;;;;;5009555;28;20752;-59
2024/02/02 06:53:05;;;;;;;6.63;4.80;;;2.60;99.90;;;;;;5010413;28;20282;-57
2024/02/02 06:55:32;;;;;;;5.22;4.50;;;2.60;99.90;;;;;;5010133;28;20595;-57
2024/02/02 06:58:00;;;;;;;9.85;5.88;;;2.60;99.90;;;;;;5009038;28;20294;-58
2024/02/02 07:00:31;;;;;;;6.32;5.63;;;2.70;99.90;;;;;;5009938;28;20219;-59
2024/02/02 07:02:58;;;;;;;7.38;6.50;;;2.70;99.90;;;;;;5009857;28;20298;-58
2024/02/02 07:05:25;;;;;;;8.73;5.88;;;2.70;99.90;;;;;;5009606;28;20263;-58
2024/02/02 07:07:52;;;;;;;16.45;6.93;;;2.70;99.90;;;;;;5009795;28;20315;-56
2024/02/02 07:10:21;;;;;;;6.18;4.88;;;2.80;99.90;;;;;;5009958;28;20264;-57
2024/02/02 07:13:01;;;;;;;17.67;7.43;;;2.80;99.90;;;;;;5009606;28;20208;-59
2024/02/02 07:15:31;;;;;;;8.45;6.20;;;2.80;99.90;;;;;;5009898;28;20228;-59
2024/02/02 07:17:58;;;;;;;9.48;6.78;;;2.80;99.90;;;;;;5009664;28;20207;-59
2024/02/02 07:21:04;;;;;;;9.65;5.43;;;2.80;99.90;;;;;;5009661;28;20212;-55
2024/02/02 07:23:41;;;;;;;11.05;5.88;;;2.80;99.90;;;;;;5009635;28;20215;-58
2024/02/02 07:26:28;;;;;;;6.43;5.40;;;2.90;99.90;;;;;;5009432;28;20266;-59
2024/02/02 07:28:57;;;;;;;6.25;5.35;;;2.90;99.90;;;;;;5009326;28;20231;-58
2024/02/02 07:31:37;;;;;;;7.82;5.50;;;2.90;99.90;;;;;;5009068;28;20250;-56
2024/02/02 07:34:22;;;;;;;8.95;5.15;;;2.90;99.90;;;;;;5009266;28;20211;-58
2024/02/02 07:36:49;;;;;;;10.77;7.55;;;2.90;99.90;;;;;;4989556;28;20213;-58
2024/02/02 07:39:28;;;;;;;8.27;6.05;;;3.00;99.90;;;;;;5008528;28;20235;-58
2024/02/02 07:41:54;;;;;;;16.02;5.05;;;3.00;99.90;;;;;;5008168;28;20895;-58
2024/02/02 07:44:23;;;;;;;5.70;4.80;;;3.00;99.90;;;;;;5009102;28;20283;-56
2024/02/02 07:46:50;;;;;;;9.23;5.75;;;3.00;99.90;;;;;;5008759;28;20247;-59
2024/02/02 07:49:17;;;;;;;6.80;5.07;;;3.10;99.90;;;;;;5007762;28;20298;-60
2024/02/02 07:51:44;;;;;;;12.30;7.00;;;3.10;99.90;;;;;;5007397;28;20211;-56
2024/02/02 07:54:11;;;;;;;12.55;7.93;;;3.10;99.90;;;;;;5007958;28;20211;-58
2024/02/02 07:56:38;;;;;;;11.00;7.88;;;3.20;99.90;;;;;;5007933;28;20269;-57
2024/02/02 07:59:05;;;;;;;7.82;6.97;;;3.20;99.90;;;;;;5008580;28;20212;-56
2024/02/02 08:01:34;;;;;;;15.82;8.40;;;3.20;99.90;;;;;;5008384;28;20250;-59
2024/02/02 08:04:01;;;;;;;11.20;8.43;;;3.20;99.90;;;;;;5009131;28;20215;-58
2024/02/02 08:06:28;;;;;;;8.25;7.07;;;3.30;99.90;;;;;;5009044;28;20632;-58
2024/02/02 08:08:57;;;;;;;8.60;7.20;;;3.30;99.90;;;;;;5008660;28;20290;-57
2024/02/02 08:11:25;;;;;;;11.95;7.60;;;3.30;99.90;;;;;;5008462;28;20262;-59
2024/02/02 08:13:52;;;;;;;8.13;7.22;;;3.40;99.90;;;;;;5008845;28;20220;-58
2024/02/02 08:16:19;;;;;;;8.48;7.25;;;3.40;99.90;;;;;;5008895;28;20263;-57
2024/02/02 08:18:48;;;;;;;9.65;6.75;;;3.40;99.90;;;;;;5009013;28;20203;-59
2024/02/02 08:21:15;;;;;;;11.25;7.45;;;3.50;99.90;;;;;;5006273;28;20590;-58
2024/02/02 08:23:43;;;;;;;9.55;6.53;;;3.50;99.90;;;;;;5008093;28;20239;-58
2024/02/02 08:26:10;;;;;;;15.60;8.48;;;3.60;99.90;;;;;;5004017;28;20663;-58
2024/02/02 08:28:38;;;;;;;11.52;8.98;;;3.60;99.90;;;;;;5008237;28;20710;-59
2024/02/02 08:31:05;;;;;;;11.50;10.20;;;3.70;99.90;;;;;;5007999;28;20219;-59
2024/02/02 08:33:32;;;;;;;15.25;9.07;;;3.80;99.90;;;;;;5006654;28;20211;-58
2024/02/02 08:36:01;;;;;;;14.77;10.45;;;3.80;99.90;;;;;;5007136;28;20901;-59
2024/02/02 08:38:28;;;;;;;12.25;9.20;;;3.90;99.90;;;;;;5007117;28;20285;-59
2024/02/02 08:40:54;;;;;;;11.73;9.00;;;3.90;99.90;;;;;;5006829;28;20682;-59
2024/02/02 08:43:22;;;;;;;12.32;9.02;;;4.00;99.90;;;;;;5007917;28;20258;-57
2024/02/02 08:46:12;;;;;;;12.18;7.00;;;4.10;99.90;;;;;;5007434;28;20231;-57
2024/02/02 08:48:46;;;;;;;9.20;6.13;;;4.10;99.90;;;;;;5007961;28;20310;-56
2024/02/02 08:51:53;;;;;;;10.23;6.30;;;4.20;99.90;;;;;;5007116;28;20262;-59
2024/02/02 08:54:36;;;;;;;7.45;5.57;;;4.30;99.90;;;;;;5004528;28;20227;-56
2024/02/02 08:57:32;;;;;;;9.48;6.18;;;4.40;99.90;;;;;;5007985;28;20211;-57
2024/02/02 09:00:04;;;;;;;8.98;5.72;;;4.40;99.90;;;;;;5006525;28;20258;-59
2024/02/02 09:03:09;;;;;;;16.17;6.25;;;4.50;99.90;;;;;;5005154;28;20343;-58
2024/02/02 09:05:51;;;;;;;9.88;5.57;;;4.60;99.90;;;;;;4971194;28;21074;-60
2024/02/02 09:08:32;;;;;;;10.63;5.18;;;4.60;99.90;;;;;;5006353;28;20231;-59
2024/02/02 09:11:18;;;;;;;10.73;7.80;;;4.70;99.90;;;;;;5005662;28;20207;-58
2024/02/02 09:13:45;;;;;;;10.93;6.43;;;4.70;99.90;;;;;;5002534;28;20635;-59
2024/02/02 09:16:15;;;;;;;7.93;5.95;;;4.80;99.90;;;;;;5007708;28;20787;-57
2024/02/02 09:18:44;;;;;;;9.50;5.72;;;4.80;99.90;;;;;;5007254;28;20203;-59
2024/02/02 09:21:14;;;;;;;8.82;5.32;;;4.90;99.90;;;;;;5008770;28;20291;-59
2024/02/02 09:23:49;;;;;;;5.53;5.03;;;5.00;99.90;;;;;;5008849;28;20219;-60
2024/02/02 09:26:17;;;;;;;8.20;5.88;;;5.10;99.90;;;;;;5008946;28;20338;-60
2024/02/02 09:28:45;;;;;;;6.55;5.82;;;5.10;99.90;;;;;;5010793;28;20286;-59
2024/02/02 09:31:20;;;;;;;9.07;6.10;;;5.10;99.90;;;;;;5009301;28;20247;-59
2024/02/02 09:33:50;;;;;;;8.40;5.70;;;5.20;99.90;;;;;;5004699;28;20207;-58
2024/02/02 09:36:17;;;;;;;9.57;7.07;;;5.20;99.90;;;;;;5007804;28;20235;-60
2024/02/02 09:38:57;;;;;;;12.70;8.25;;;5.30;99.90;;;;;;5010601;28;20964;-59
2024/02/02 09:42:04;;;;;;;9.95;6.72;;;5.30;99.90;;;;;;5009341;28;20204;-60
2024/02/02 09:44:47;;;;;;;10.18;8.45;;;5.40;99.90;;;;;;5007272;28;20238;-58
2024/02/02 09:47:35;;;;;;;9.88;5.68;;;5.50;99.90;;;;;;5010837;28;20243;-57
2024/02/02 09:50:15;;;;;;;7.97;5.88;;;5.50;99.90;;;;;;5005299;28;20310;-58
2024/02/02 09:52:57;;;;;;;10.80;5.47;;;5.50;99.90;;;;;;5010338;28;20235;-58
2024/02/02 09:55:33;;;;;;;10.30;6.55;;;5.60;99.90;;;;;;5010943;28;20645;-56
2024/02/02 09:58:08;;;;;;;6.85;5.95;;;5.60;99.90;;;;;;5010616;28;20211;-60
2024/02/02 10:00:44;;;;;;;7.50;6.80;;;5.60;99.90;;;;;;5010066;28;20329;-59
2024/02/02 10:03:21;;;;;;;6.10;5.50;;;5.70;99.90;;;;;;5007862;28;20243;-60
2024/02/02 10:06:06;;;;;;;6.18;5.40;;;5.70;99.90;;;;;;5009864;28;20231;-58
2024/02/02 10:08:58;;;;;;;14.10;7.32;;;5.80;99.90;;;;;;5009730;28;20238;-60
2024/02/02 10:11:52;;;;;;;16.45;6.60;;;5.90;99.90;;;;;;5009792;28;20212;-59
2024/02/02 10:14:41;;;;;;;7.05;5.90;;;6.00;99.90;;;;;;5009163;28;20232;-58
2024/02/02 10:17:16;;;;;;;7.75;5.75;;;6.00;99.90;;;;;;5009948;28;20595;-60
2024/02/02 10:20:17;;;;;;;8.60;6.15;;;6.10;99.90;;;;;;5010208;28;20586;-58
2024/02/02 10:23:09;;;;;;;7.45;6.70;;;6.20;99.90;;;;;;4951300;28;20289;-60
2024/02/02 10:25:52;;;;;;;5.65;5.10;;;6.30;99.90;;;;;;5016527;28;20288;-59
2024/02/02 10:28:34;;;;;;;10.45;7.00;;;6.30;99.90;;;;;;5013774;28;20290;-60
2024/02/02 10:31:12;;;;;;;9.02;6.07;;;6.40;99.90;;;;;;5006103;28;20262;-58
2024/02/02 10:33:57;;;;;;;7.55;6.30;;;6.50;99.90;;;;;;5009062;28;20258;-58
2024/02/02 10:36:35;;;;;;;11.35;7.18;;;6.50;99.90;;;;;;5008675;28;20239;-60
2024/02/02 10:39:19;;;;;;;7.22;6.53;;;6.60;99.90;;;;;;5009517;28;20208;-59
2024/02/02 10:42:13;;;;;;;10.02;6.63;;;6.70;99.90;;;;;;5008822;28;20697;-57
2024/02/02 10:44:54;;;;;;;8.10;6.57;;;6.80;99.90;;;;;;5009031;28;20246;-59
2024/02/02 10:47:42;;;;;;;9.02;7.78;;;6.90;99.90;;;;;;5005204;28;20262;-59
2024/02/02 10:50:20;;;;;;;18.58;7.75;;;7.00;99.90;;;;;;5006104;28;20224;-59
2024/02/02 10:52:58;;;;;;;13.40;6.28;;;7.10;99.90;;;;;;5008927;28;20212;-58
2024/02/02 10:55:40;;;;;;;8.40;6.70;;;7.10;99.90;;;;;;5006399;28;20259;-59
2024/02/02 10:58:24;;;;;;;9.98;7.13;;;7.10;99.90;;;;;;5005459;28;20216;-59
2024/02/02 11:01:01;;;;;;;8.38;6.88;;;7.20;99.90;;;;;;5008701;28;20215;-60
2024/02/02 11:03:36;;;;;;;13.63;8.18;;;7.20;99.90;;;;;;5005881;28;20645;-60
2024/02/02 11:06:17;;;;;;;7.65;6.85;;;7.20;99.90;;;;;;5003832;28;20226;-60
2024/02/02 11:08:50;;;;;;;9.10;7.90;;;7.20;99.90;;;;;;5008573;28;20274;-58
2024/02/02 11:11:22;;;;;;;12.65;7.63;;;7.20;99.90;;;;;;5008245;28;20215;-60
2024/02/02 11:13:57;;;;;;;12.90;8.07;;;7.30;99.90;;;;;;5008635;28;20207;-59
2024/02/02 11:16:41;;;;;;;10.70;8.40;;;7.30;99.90;;;;;;4996598;28;20214;-57
2024/02/02 11:19:19;;;;;;;16.88;8.85;;;7.30;99.90;;;;;;5008562;28;20589;-57
2024/02/02 11:22:10;;;;;;;11.65;7.80;;;7.40;99.90;;;;;;5007347;28;20215;-56
2024/02/02 11:24:50;;;;;;;10.77;7.50;;;7.50;99.90;;;;;;5006779;28;20325;-58
2024/02/02 11:27:24;;;;;;;10.73;7.85;;;7.50;99.90;;;;;;5005003;28;20217;-61
2024/02/02 11:30:02;;;;;;;11.50;7.28;;;7.60;99.90;;;;;;5006869;28;20840;-60
2024/02/02 11:32:50;;;;;;;7.97;6.57;;;7.70;99.90;;;;;;5004524;28;20208;-60
2024/02/02 11:35:25;;;;;;;7.50;6.80;;;7.80;99.90;;;;;;5003570;28;20243;-58
2024/02/02 11:38:02;;;;;;;7.68;6.88;;;7.90;99.90;;;;;;5006468;28;20204;-59
2024/02/02 11:40:31;;;;;;;10.00;6.67;;;8.10;99.90;;;;;;5007431;28;20291;-62
2024/02/02 11:43:01;;;;;;;7.73;6.93;;;8.30;99.90;;;;;;5007508;28;20483;-60
2024/02/02 11:45:36;;;;;;;10.63;7.37;;;8.40;99.90;;;;;;5008170;28;20577;-61
2024/02/02 11:48:06;;;;;;;8.75;6.60;;;8.60;99.90;;;;;;5001721;28;20462;-60
2024/02/02 11:50:38;;;;;;;6.90;6.30;;;8.80;99.90;;;;;;5006428;28;20219;-59
2024/02/02 11:53:15;;;;;;;6.50;5.83;;;9.10;99.90;;;;;;5007977;28;20923;-61
2024/02/02 11:55:46;;;;;;;5.20;4.72;;;9.20;99.90;;;;;;5007453;28;21011;-59
2024/02/02 11:58:17;;;;;;;8.03;5.33;;;9.30;99.90;;;;;;5007740;28;20204;-60
2024/02/02 12:01:05;;;;;;;5.67;5.17;;;9.50;99.90;;;;;;5007635;28;20502;-60
2024/02/02 12:03:53;;;;;;;6.07;5.67;;;9.70;99.90;;;;;;5007462;28;20455;-59
2024/02/02 12:06:21;;;;;;;5.00;4.20;;;9.70;99.90;;;;;;5007902;28;20466;-58
2024/02/02 12:09:02;;;;;;;5.30;4.33;;;9.90;99.90;;;;;;5003474;28;20473;-61
2024/02/02 12:11:37;;;;;;;6.37;5.20;;;10.00;99.90;;;;;;5007473;28;20614;-57
2024/02/02 12:14:11;;;;;;;10.63;4.87;;;10.10;99.90;;;;;;5005971;28;20458;-60
2024/02/02 12:16:38;;;;;;;6.40;4.20;;;10.10;99.90;;;;;;5007525;28;20510;-60
2024/02/02 12:19:06;;;;;;;8.47;4.97;;;10.20;99.90;;;;;;5007702;28;20454;-59
2024/02/02 12:21:33;;;;;;;9.10;4.57;;;10.30;99.90;;;;;;5007162;28;20458;-60
2024/02/02 12:24:00;;;;;;;4.27;3.93;;;10.50;99.90;;;;;;5006941;28;20840;-61
2024/02/02 12:26:28;;;;;;;6.17;3.60;;;10.60;99.90;;;;;;5004926;28;20953;-59
2024/02/02 12:28:55;;;;;;;5.20;4.70;;;10.80;99.90;;;;;;5006844;28;20455;-58
2024/02/02 12:31:22;;;;;;;5.33;3.47;;;11.00;99.90;;;;;;5005473;28;20466;-59
2024/02/02 12:33:49;;;;;;;4.17;3.63;;;11.00;99.90;;;;;;5008328;28;20458;-61
2024/02/02 12:36:21;;;;;;;4.63;4.23;;;11.10;99.90;;;;;;5007099;28;20482;-61
2024/02/02 12:38:48;;;;;;;3.60;2.63;;;11.10;99.90;;;;;;5003870;28;20814;-61
2024/02/02 12:41:15;;;;;;;5.17;4.70;;;11.20;99.90;;;;;;5007129;28;20475;-61
2024/02/02 12:43:46;;;;;;;7.80;3.83;;;11.30;99.90;;;;;;5007154;28;20837;-60
2024/02/02 12:46:13;;;;;;;6.17;4.40;;;11.40;99.90;;;;;;5006222;28;20506;-59
2024/02/02 12:48:41;;;;;;;4.33;3.50;;;11.40;99.90;;;;;;5006790;28;20500;-59
2024/02/02 12:51:08;;;;;;;7.40;3.70;;;11.60;99.90;;;;;;5007261;28;20870;-61
2024/02/02 12:53:36;;;;;;;6.90;3.87;;;11.60;99.90;;;;;;5007115;28;20459;-61
2024/02/02 12:56:03;;;;;;;8.50;5.00;;;11.70;99.90;;;;;;5010246;28;20843;-58
2024/02/02 12:58:30;;;;;;;6.37;4.33;;;11.80;99.90;;;;;;5011650;28;20844;-60
2024/02/02 13:00:57;;;;;;;5.70;3.90;;;11.80;99.90;;;;;;5011074;28;20497;-60
2024/02/02 13:03:24;;;;;;;4.33;3.63;;;11.80;99.90;;;;;;5011442;28;20516;-62
2024/02/02 13:05:52;;;;;;;13.70;3.87;;;11.80;99.90;;;;;;5010887;28;20502;-60
2024/02/02 13:08:29;;;;;;;4.20;3.80;;;11.70;99.90;;;;;;5010792;28;20454;-61
2024/02/02 13:10:59;;;;;;;4.77;3.40;;;11.60;99.90;;;;;;5013277;28;20489;-59